Stoneville, South Dakota
Current Conditions -  °F | °C
As of 6:58 PM on Saturday 20 Dec 2014 (Local Time) from KRCA Reporting Station
Broken Clouds Broken Clouds  
Wind Chill:   Ceiling: 15000
Heat Index:   Visibility: 10mi
Dew Point: -3°   Wind: 0mph
Humidity: 62%   Direction: NA
Pressure: 29.86"   Gusts: NA
Location:  44.653°N, 102.847°W
Report Text: KRCA 210158Z AUTO 00000KT 10SM BKN150 03/M03 A2986 RMK AO2 SLP135 T00331033 $
Loading
Personal Weather Stations






























Interactive Weather Map New forecast layout! Learn more

10-Day Weather Forecast

Advertisements
Track Severe Weather on mobile